Time;durP1;ratioP1;P1;durP2;ratioP2;P2;SDS_P1;SDS_P2;PMS_P1;PMS_P2;Temp;Humidity;BMP_temperature;BMP_pressure;BME280_temperature;BME280_humidity;BME280_pressure;Samples;Min_cycle;Max_cycle;Signal;HPM_P1;HPM_P2
2023/09/13 00:02:16;;;;;;;5.18;4.68;;;21.50;99.90;;;;;;5052714;28;20303;-73
2023/09/13 00:04:43;;;;;;;5.57;5.15;;;21.50;99.90;;;;;;5052273;28;20866;-73
2023/09/13 00:07:12;;;;;;;4.90;4.50;;;21.60;99.90;;;;;;5051418;28;20762;-73
2023/09/13 00:09:41;;;;;;;5.20;4.50;;;21.70;99.90;;;;;;5052061;28;20205;-73
2023/09/13 00:12:08;;;;;;;4.95;4.50;;;21.70;99.90;;;;;;5054198;28;20214;-73
2023/09/13 00:14:35;;;;;;;5.28;4.78;;;21.70;99.90;;;;;;5053478;28;20214;-73
2023/09/13 00:17:02;;;;;;;5.18;4.78;;;21.70;99.90;;;;;;5057516;28;20268;-73
2023/09/13 00:19:30;;;;;;;4.93;4.53;;;21.60;99.90;;;;;;5052511;28;20248;-73
2023/09/13 00:21:57;;;;;;;4.78;4.40;;;21.50;99.90;;;;;;5053226;28;20297;-73
2023/09/13 00:24:26;;;;;;;5.10;4.70;;;21.50;99.90;;;;;;5052500;28;20230;-73
2023/09/13 00:26:53;;;;;;;5.18;4.78;;;21.30;99.90;;;;;;5052065;28;20295;-73
2023/09/13 00:29:20;;;;;;;5.05;4.65;;;21.30;99.90;;;;;;5055098;28;20210;-73
2023/09/13 00:31:47;;;;;;;5.50;5.05;;;21.30;99.90;;;;;;5052383;28;20246;-73
2023/09/13 00:34:14;;;;;;;5.30;4.90;;;21.30;99.90;;;;;;5058419;28;20254;-73
2023/09/13 00:36:41;;;;;;;5.40;4.95;;;21.30;99.90;;;;;;5053259;28;20299;-73
2023/09/13 00:39:08;;;;;;;5.78;5.00;;;21.30;99.90;;;;;;5052618;28;20295;-73
2023/09/13 00:41:37;;;;;;;5.30;4.90;;;21.30;99.90;;;;;;5054758;28;20303;-74
2023/09/13 00:44:04;;;;;;;6.00;5.50;;;21.30;99.90;;;;;;5059954;28;20321;-74
2023/09/13 00:46:31;;;;;;;5.43;4.97;;;21.30;99.90;;;;;;5054720;28;20230;-74
2023/09/13 00:48:59;;;;;;;5.75;5.35;;;21.40;99.90;;;;;;5052320;28;20238;-74
2023/09/13 00:51:26;;;;;;;5.28;4.88;;;21.50;99.90;;;;;;5056027;28;20242;-74
2023/09/13 00:53:53;;;;;;;5.65;5.15;;;21.50;99.90;;;;;;5060656;28;20264;-74
2023/09/13 00:56:20;;;;;;;6.20;5.68;;;21.40;99.90;;;;;;5058569;28;20308;-74
2023/09/13 00:58:51;;;;;;;5.05;4.65;;;21.50;99.90;;;;;;5054813;28;20585;-74
2023/09/13 01:01:19;;;;;;;5.70;5.20;;;21.40;99.90;;;;;;5057252;28;20206;-74
2023/09/13 01:03:46;;;;;;;5.03;4.63;;;21.40;99.90;;;;;;5053301;28;20205;-74
2023/09/13 01:06:14;;;;;;;5.68;5.28;;;21.30;99.90;;;;;;5057213;28;20698;-73
2023/09/13 01:08:42;;;;;;;5.63;5.13;;;21.30;99.90;;;;;;5060100;28;20244;-73
2023/09/13 01:11:10;;;;;;;6.18;5.68;;;21.40;99.90;;;;;;5054718;28;20210;-74
2023/09/13 01:13:38;;;;;;;5.70;5.20;;;21.30;99.90;;;;;;5057445;28;20198;-73
2023/09/13 01:16:16;;;;;;;6.20;5.60;;;21.30;99.90;;;;;;5056954;28;20194;-74
2023/09/13 01:18:51;;;;;;;6.10;5.50;;;21.40;99.90;;;;;;5056920;28;20731;-73
2023/09/13 01:21:32;;;;;;;6.15;5.75;;;21.40;99.90;;;;;;5055066;28;20678;-73
2023/09/13 01:24:21;;;;;;;6.78;6.28;;;21.20;99.90;;;;;;5061014;28;20226;-73
2023/09/13 01:27:07;;;;;;;6.85;6.13;;;21.10;99.90;;;;;;5058331;28;20218;-72
2023/09/13 01:29:37;;;;;;;6.50;6.00;;;21.00;99.90;;;;;;5061110;28;20251;-72
2023/09/13 01:32:05;;;;;;;7.07;6.47;;;21.10;99.90;;;;;;5055694;28;20311;-73
2023/09/13 01:34:32;;;;;;;6.95;6.32;;;21.20;99.90;;;;;;5055998;28;20251;-72
2023/09/13 01:36:59;;;;;;;7.32;6.72;;;21.20;99.90;;;;;;5061205;28;20238;-72
2023/09/13 01:39:26;;;;;;;7.03;6.43;;;21.20;99.90;;;;;;5059609;28;20234;-72
2023/09/13 01:41:57;;;;;;;7.32;6.72;;;21.10;99.90;;;;;;5061662;28;20191;-72
2023/09/13 01:44:24;;;;;;;7.00;6.40;;;21.10;99.90;;;;;;5058750;28;20275;-72
2023/09/13 01:46:54;;;;;;;6.60;6.10;;;21.00;99.90;;;;;;5061435;28;20235;-72
2023/09/13 01:49:22;;;;;;;6.95;6.38;;;21.00;99.90;;;;;;5064400;28;20222;-72
2023/09/13 01:51:50;;;;;;;6.88;6.28;;;21.10;99.90;;;;;;5057978;28;20246;-72
2023/09/13 01:54:19;;;;;;;7.00;6.30;;;21.10;99.90;;;;;;5062510;28;20250;-72
2023/09/13 01:56:46;;;;;;;7.00;6.40;;;21.20;99.90;;;;;;5061866;28;20202;-72
2023/09/13 01:59:13;;;;;;;7.00;6.40;;;21.30;99.90;;;;;;5057593;28;20281;-72
2023/09/13 02:01:40;;;;;;;7.03;6.43;;;21.30;99.90;;;;;;5059617;28;20276;-72
2023/09/13 02:04:09;;;;;;;7.80;6.47;;;21.40;99.90;;;;;;5054595;28;20230;-72
2023/09/13 02:06:36;;;;;;;6.63;6.13;;;21.50;99.90;;;;;;5061830;28;20230;-72
2023/09/13 02:09:03;;;;;;;7.15;6.55;;;21.50;99.90;;;;;;5056908;28;20203;-74
2023/09/13 02:11:30;;;;;;;7.15;6.50;;;21.40;99.90;;;;;;5061150;28;20304;-74
2023/09/13 02:13:57;;;;;;;6.57;6.07;;;21.40;99.90;;;;;;5058691;28;20312;-74
2023/09/13 02:16:24;;;;;;;7.30;6.68;;;21.20;99.90;;;;;;5063437;28;20198;-74
2023/09/13 02:18:52;;;;;;;7.50;6.80;;;21.10;99.90;;;;;;5062398;28;20263;-74
2023/09/13 02:21:20;;;;;;;6.88;6.28;;;20.80;99.90;;;;;;5072675;28;20194;-74
2023/09/13 02:23:47;;;;;;;6.68;6.07;;;20.60;99.90;;;;;;5061059;28;20283;-74
2023/09/13 02:26:21;;;;;;;8.20;7.43;;;20.70;99.90;;;;;;5059012;28;20199;-73
2023/09/13 02:28:48;;;;;;;7.45;6.75;;;20.80;99.90;;;;;;5060163;28;20230;-73
2023/09/13 02:31:22;;;;;;;7.30;6.70;;;20.90;99.90;;;;;;5059158;28;20246;-72
2023/09/13 02:33:49;;;;;;;7.53;6.93;;;21.00;99.90;;;;;;5060116;28;20285;-72
2023/09/13 02:36:16;;;;;;;7.28;6.78;;;21.00;99.90;;;;;;5058296;28;20260;-72
2023/09/13 02:38:44;;;;;;;7.40;6.80;;;21.10;99.90;;;;;;5061937;28;20202;-72
2023/09/13 02:41:12;;;;;;;6.72;6.22;;;21.10;99.90;;;;;;5058011;28;20286;-72
2023/09/13 02:43:40;;;;;;;7.32;6.72;;;21.10;99.90;;;;;;5059593;28;20230;-72
2023/09/13 02:46:07;;;;;;;7.40;6.80;;;21.10;99.90;;;;;;5060070;28;20210;-72
2023/09/13 02:48:34;;;;;;;7.65;7.05;;;21.00;99.90;;;;;;5059603;28;20201;-72
2023/09/13 02:51:02;;;;;;;7.25;6.65;;;21.10;99.90;;;;;;5056313;28;20276;-72
2023/09/13 02:53:31;;;;;;;6.97;6.35;;;21.10;99.90;;;;;;5058654;28;20253;-72
2023/09/13 02:56:05;;;;;;;7.22;6.63;;;21.10;99.90;;;;;;5059675;28;20229;-72
2023/09/13 02:58:32;;;;;;;8.13;7.43;;;21.10;99.90;;;;;;5058467;28;20224;-72
2023/09/13 03:01:03;;;;;;;7.50;6.78;;;21.10;99.90;;;;;;5060790;28;20190;-72
2023/09/13 03:03:30;;;;;;;7.43;6.80;;;21.20;99.90;;;;;;5061305;28;20202;-72
2023/09/13 03:06:07;;;;;;;7.53;6.93;;;21.20;99.90;;;;;;5055551;28;20234;-72
2023/09/13 03:08:34;;;;;;;7.55;6.95;;;21.30;99.90;;;;;;5053843;28;20194;-73
2023/09/13 03:11:11;;;;;;;7.18;6.57;;;21.20;99.90;;;;;;5060326;28;20933;-73
2023/09/13 03:13:39;;;;;;;8.52;7.82;;;21.20;99.90;;;;;;5059408;28;20198;-73
2023/09/13 03:16:12;;;;;;;7.82;7.22;;;21.10;99.90;;;;;;5054623;28;20726;-73
2023/09/13 03:18:41;;;;;;;7.25;6.65;;;21.00;99.90;;;;;;5061438;28;20202;-73
2023/09/13 03:21:09;;;;;;;6.68;6.18;;;21.10;99.90;;;;;;5061597;28;20222;-73
2023/09/13 03:23:38;;;;;;;6.60;6.00;;;21.10;99.90;;;;;;5053954;28;20203;-73
2023/09/13 03:26:13;;;;;;;7.43;6.82;;;21.10;99.90;;;;;;5059993;28;20218;-73
2023/09/13 03:28:41;;;;;;;7.78;7.18;;;21.10;99.90;;;;;;5058780;28;20283;-73
2023/09/13 03:31:11;;;;;;;8.15;7.43;;;21.10;99.90;;;;;;5059559;28;20300;-73
2023/09/13 03:33:40;;;;;;;7.80;7.13;;;21.00;99.90;;;;;;5060218;28;20352;-73
2023/09/13 03:36:08;;;;;;;7.38;6.75;;;21.00;99.90;;;;;;5057035;28;20209;-73
2023/09/13 03:38:37;;;;;;;7.57;6.97;;;21.00;99.90;;;;;;5062009;28;20224;-73
2023/09/13 03:41:05;;;;;;;7.97;7.38;;;21.00;99.90;;;;;;5060099;28;20194;-73
2023/09/13 03:43:33;;;;;;;8.00;7.40;;;20.80;99.90;;;;;;5060298;28;20295;-73
2023/09/13 03:46:01;;;;;;;7.90;7.30;;;20.80;99.90;;;;;;5057896;28;20198;-73
2023/09/13 03:48:30;;;;;;;8.20;7.50;;;20.70;99.90;;;;;;5060117;28;20226;-73
2023/09/13 03:50:57;;;;;;;7.82;7.22;;;20.80;99.90;;;;;;5053554;28;20245;-73
2023/09/13 03:53:26;;;;;;;8.10;7.07;;;20.90;99.90;;;;;;5054778;28;20963;-73
2023/09/13 03:55:53;;;;;;;7.68;7.07;;;20.90;99.90;;;;;;5058732;28;20257;-73
2023/09/13 03:58:20;;;;;;;8.02;7.30;;;20.80;99.90;;;;;;5056983;28;20223;-73
2023/09/13 04:00:49;;;;;;;8.02;7.32;;;20.90;99.90;;;;;;5053749;28;20233;-73
2023/09/13 04:03:17;;;;;;;7.40;6.70;;;20.80;99.90;;;;;;5059611;28;20641;-73
2023/09/13 04:05:44;;;;;;;8.05;7.40;;;20.80;99.90;;;;;;5058060;28;20249;-73
2023/09/13 04:08:11;;;;;;;7.53;6.90;;;20.80;99.90;;;;;;5054655;28;20257;-73
2023/09/13 04:10:38;;;;;;;7.90;7.28;;;20.80;99.90;;;;;;5056101;28;20225;-73
2023/09/13 04:13:06;;;;;;;7.28;6.70;;;20.80;99.90;;;;;;5056078;28;20696;-73
2023/09/13 04:15:33;;;;;;;7.32;6.72;;;20.70;99.90;;;;;;5058025;28;20214;-73
2023/09/13 04:18:01;;;;;;;8.43;7.63;;;20.70;99.90;;;;;;5053246;28;20754;-73
2023/09/13 04:20:28;;;;;;;7.32;6.72;;;20.70;99.90;;;;;;5058410;28;20194;-73
2023/09/13 04:22:55;;;;;;;7.78;7.07;;;20.70;99.90;;;;;;5058421;28;20243;-73
2023/09/13 04:25:22;;;;;;;7.43;6.80;;;20.70;99.90;;;;;;5055079;28;20214;-73
2023/09/13 04:27:49;;;;;;;7.53;6.93;;;20.60;99.90;;;;;;5058095;28;20816;-73
2023/09/13 04:30:17;;;;;;;7.88;7.18;;;20.60;99.90;;;;;;5055271;28;20277;-72
2023/09/13 04:32:44;;;;;;;6.93;6.43;;;20.60;99.90;;;;;;5057641;28;20848;-72
2023/09/13 04:35:12;;;;;;;8.25;7.55;;;20.60;99.90;;;;;;5057657;28;20764;-71
2023/09/13 04:37:39;;;;;;;7.65;6.95;;;20.60;99.90;;;;;;5056985;28;20202;-69
2023/09/13 04:40:07;;;;;;;8.38;7.63;;;20.50;99.90;;;;;;5059258;28;20202;-69
2023/09/13 04:42:37;;;;;;;7.35;6.75;;;20.50;99.90;;;;;;5057033;28;20199;-73
2023/09/13 04:45:05;;;;;;;8.38;7.68;;;20.50;99.90;;;;;;5059305;28;20244;-73
2023/09/13 04:47:32;;;;;;;8.02;7.32;;;20.40;99.90;;;;;;5056800;28;20198;-73
2023/09/13 04:49:59;;;;;;;8.07;7.35;;;20.30;99.90;;;;;;5053388;28;20201;-73
2023/09/13 04:52:28;;;;;;;8.80;8.00;;;20.40;99.90;;;;;;5058457;28;20269;-73
2023/09/13 04:54:55;;;;;;;8.75;7.95;;;20.40;99.90;;;;;;5059405;28;20257;-73
2023/09/13 04:57:22;;;;;;;7.95;7.35;;;20.50;99.90;;;;;;5057445;28;20226;-73
2023/09/13 04:59:49;;;;;;;8.15;7.43;;;20.60;99.90;;;;;;5059889;28;20233;-73
2023/09/13 05:02:16;;;;;;;7.68;6.97;;;20.60;99.90;;;;;;5055659;28;20793;-73
2023/09/13 05:04:43;;;;;;;8.35;7.68;;;20.60;99.90;;;;;;5060682;28;20241;-73
2023/09/13 05:07:10;;;;;;;8.07;7.38;;;20.60;99.90;;;;;;5056941;28;20230;-73
2023/09/13 05:09:40;;;;;;;7.63;7.03;;;20.70;99.90;;;;;;5056232;28;20272;-73
2023/09/13 05:12:07;;;;;;;8.05;7.32;;;20.80;99.90;;;;;;5063028;28;20626;-73
2023/09/13 05:14:36;;;;;;;7.88;7.28;;;20.80;99.90;;;;;;5059766;28;20330;-72
2023/09/13 05:17:03;;;;;;;8.00;7.40;;;20.80;99.90;;;;;;5060073;28;20824;-71
2023/09/13 05:19:30;;;;;;;7.32;6.68;;;20.80;99.90;;;;;;5060291;28;20247;-71
2023/09/13 05:21:57;;;;;;;6.82;6.32;;;20.80;99.90;;;;;;5056950;28;20230;-71
2023/09/13 05:24:24;;;;;;;6.93;6.35;;;20.90;99.90;;;;;;5058935;28;20840;-71
2023/09/13 05:26:53;;;;;;;7.10;6.50;;;20.80;99.90;;;;;;5054446;28;20209;-71
2023/09/13 05:29:20;;;;;;;9.55;7.10;;;20.80;99.90;;;;;;5056626;28;20230;-72
2023/09/13 05:31:47;;;;;;;7.38;6.75;;;20.90;99.90;;;;;;5057624;28;20246;-71
2023/09/13 05:34:14;;;;;;;7.95;7.32;;;20.90;99.90;;;;;;5055297;28;20311;-71
2023/09/13 05:36:41;;;;;;;7.32;6.72;;;21.00;99.90;;;;;;5060593;28;20610;-72
2023/09/13 05:39:08;;;;;;;7.65;7.05;;;21.10;99.90;;;;;;5057914;28;20289;-72
2023/09/13 05:41:37;;;;;;;7.78;7.18;;;21.10;99.90;;;;;;5055115;28;20268;-71
2023/09/13 05:44:08;;;;;;;7.53;6.90;;;21.00;99.90;;;;;;5060647;28;20226;-71
2023/09/13 05:46:35;;;;;;;7.85;7.15;;;21.00;99.90;;;;;;5060617;28;20285;-73
2023/09/13 05:49:05;;;;;;;8.32;7.63;;;21.00;99.90;;;;;;5058120;28;20195;-73
2023/09/13 05:51:32;;;;;;;7.95;7.30;;;20.90;99.90;;;;;;5054249;28;20194;-73
2023/09/13 05:53:59;;;;;;;7.78;7.18;;;20.90;99.90;;;;;;5054357;28;20222;-72
2023/09/13 05:56:26;;;;;;;8.63;7.93;;;20.90;99.90;;;;;;5059116;28;20944;-72
2023/09/13 05:58:53;;;;;;;8.43;7.63;;;20.90;99.90;;;;;;5067645;28;20210;-72
2023/09/13 06:01:22;;;;;;;9.20;8.40;;;20.90;99.90;;;;;;5059506;28;20271;-72
2023/09/13 06:03:49;;;;;;;8.88;8.18;;;20.90;99.90;;;;;;5058825;28;20252;-72
2023/09/13 06:06:16;;;;;;;9.23;8.43;;;20.80;99.90;;;;;;5059657;28;20675;-72
2023/09/13 06:08:43;;;;;;;10.70;9.82;;;20.80;99.90;;;;;;5041972;28;20203;-72
2023/09/13 06:11:10;;;;;;;10.07;9.18;;;20.60;99.90;;;;;;5057376;28;20672;-72
2023/09/13 06:13:37;;;;;;;9.27;8.48;;;20.50;99.90;;;;;;5057185;28;20260;-72
2023/09/13 06:16:04;;;;;;;9.07;8.27;;;20.60;99.90;;;;;;5059948;28;21001;-72
2023/09/13 06:18:33;;;;;;;9.80;8.90;;;20.60;99.90;;;;;;5054468;28;20287;-72
2023/09/13 06:21:00;;;;;;;9.10;8.30;;;20.80;99.90;;;;;;5059299;28;20264;-71
2023/09/13 06:23:35;;;;;;;9.40;8.60;;;20.80;99.90;;;;;;5057664;28;20229;-71
2023/09/13 06:26:02;;;;;;;9.07;8.18;;;20.90;99.90;;;;;;5062916;28;20194;-71
2023/09/13 06:28:29;;;;;;;8.77;8.07;;;20.90;99.90;;;;;;5056369;28;20733;-72
2023/09/13 06:30:58;;;;;;;8.07;7.45;;;20.80;99.90;;;;;;5055866;28;20283;-71
2023/09/13 06:33:25;;;;;;;8.45;7.72;;;20.90;99.90;;;;;;5055455;28;20222;-71
2023/09/13 06:35:55;;;;;;;8.75;8.02;;;20.90;99.90;;;;;;5056323;28;21596;-71
2023/09/13 06:38:22;;;;;;;8.30;7.60;;;21.00;99.90;;;;;;5058811;28;20194;-71
2023/09/13 06:40:51;;;;;;;7.60;7.00;;;21.00;99.90;;;;;;5054956;28;20678;-71
2023/09/13 06:43:19;;;;;;;8.80;8.00;;;21.10;99.90;;;;;;5059669;28;20194;-73
2023/09/13 06:45:47;;;;;;;8.43;7.63;;;21.20;99.90;;;;;;5061196;28;20234;-73
2023/09/13 06:48:15;;;;;;;8.60;7.90;;;21.10;99.90;;;;;;5056761;28;20203;-73
2023/09/13 06:50:42;;;;;;;10.80;9.70;;;21.00;99.90;;;;;;5057689;28;20634;-72
2023/09/13 06:53:10;;;;;;;10.98;10.05;;;20.80;99.90;;;;;;5057521;28;20778;-72
2023/09/13 06:55:37;;;;;;;10.43;9.52;;;20.60;99.90;;;;;;5062786;28;20218;-72
2023/09/13 06:58:07;;;;;;;10.00;9.20;;;20.50;99.90;;;;;;5056737;28;21934;-72
2023/09/13 07:00:34;;;;;;;8.55;7.85;;;20.60;99.90;;;;;;5055958;28;20237;-72
2023/09/13 07:03:04;;;;;;;8.20;7.55;;;20.70;99.90;;;;;;5057656;28;20805;-72
2023/09/13 07:05:31;;;;;;;8.82;8.13;;;20.80;99.90;;;;;;5063242;28;20256;-72
2023/09/13 07:08:00;;;;;;;9.30;8.50;;;20.80;99.90;;;;;;5057662;28;20319;-71
2023/09/13 07:10:28;;;;;;;8.40;7.70;;;20.80;99.90;;;;;;5066516;28;20597;-71
2023/09/13 07:12:57;;;;;;;8.18;7.55;;;20.90;99.90;;;;;;5070684;28;20229;-72
2023/09/13 07:15:24;;;;;;;7.32;6.72;;;21.00;99.90;;;;;;5061800;28;20226;-72
2023/09/13 07:17:53;;;;;;;7.82;7.13;;;21.00;99.90;;;;;;5060311;28;20268;-72
2023/09/13 07:20:20;;;;;;;8.23;7.53;;;21.10;99.90;;;;;;5057276;28;20205;-72
2023/09/13 07:22:47;;;;;;;8.05;7.35;;;21.10;99.90;;;;;;5057985;28;20819;-72
2023/09/13 07:25:14;;;;;;;8.50;7.80;;;21.00;99.90;;;;;;5056102;28;20767;-72
2023/09/13 07:27:43;;;;;;;7.55;6.85;;;21.10;99.90;;;;;;5058482;28;20199;-72
2023/09/13 07:30:10;;;;;;;8.13;7.43;;;21.00;99.90;;;;;;5058966;28;20260;-73
2023/09/13 07:32:38;;;;;;;8.05;7.28;;;21.10;99.90;;;;;;5061916;28;20222;-73
2023/09/13 07:35:05;;;;;;;8.43;7.65;;;21.10;99.90;;;;;;5057847;28;20311;-73
2023/09/13 07:37:34;;;;;;;8.30;7.47;;;21.10;99.90;;;;;;5056354;28;20190;-73
2023/09/13 07:40:01;;;;;;;7.93;7.28;;;21.20;99.90;;;;;;5053142;28;20210;-73
2023/09/13 07:42:28;;;;;;;8.32;7.63;;;21.10;99.90;;;;;;5056161;28;20202;-73
2023/09/13 07:44:57;;;;;;;8.15;7.55;;;21.10;99.90;;;;;;5052491;28;20857;-72
2023/09/13 07:47:24;;;;;;;7.63;6.95;;;21.20;99.90;;;;;;5057466;28;20295;-72
2023/09/13 07:49:51;;;;;;;7.57;6.97;;;21.30;99.90;;;;;;5055592;28;20203;-72
2023/09/13 07:52:18;;;;;;;7.38;6.78;;;21.40;99.90;;;;;;5057969;28;20249;-72
2023/09/13 07:54:45;;;;;;;8.02;7.32;;;21.40;99.90;;;;;;5055787;28;20700;-72
2023/09/13 07:57:12;;;;;;;8.38;7.68;;;21.40;99.90;;;;;;5053253;28;20209;-72
2023/09/13 07:59:39;;;;;;;8.25;7.55;;;21.40;99.90;;;;;;5052062;28;20222;-72
2023/09/13 08:02:08;;;;;;;9.48;8.48;;;21.50;99.90;;;;;;5053923;28;20291;-72
2023/09/13 08:04:35;;;;;;;8.18;7.38;;;21.60;99.90;;;;;;5056415;28;20250;-73
2023/09/13 08:07:03;;;;;;;8.75;7.95;;;21.60;99.90;;;;;;5057444;28;20260;-72
2023/09/13 08:09:30;;;;;;;9.43;8.63;;;21.70;99.90;;;;;;5052714;28;20195;-72
2023/09/13 08:11:57;;;;;;;8.05;7.35;;;21.70;99.90;;;;;;5052799;28;20238;-72
2023/09/13 08:14:24;;;;;;;9.15;8.35;;;21.70;99.90;;;;;;5054469;28;20316;-73
2023/09/13 08:16:51;;;;;;;8.55;7.75;;;21.70;99.90;;;;;;5052468;28;20835;-73
2023/09/13 08:19:20;;;;;;;9.15;8.35;;;21.60;99.90;;;;;;5058292;28;20217;-72
2023/09/13 08:21:47;;;;;;;8.68;7.90;;;21.60;99.90;;;;;;5051079;28;20228;-71
2023/09/13 08:24:14;;;;;;;9.15;8.35;;;21.60;99.90;;;;;;5054977;28;20287;-71
2023/09/13 08:26:41;;;;;;;9.45;8.65;;;21.60;99.90;;;;;;5056156;28;20259;-71
2023/09/13 08:29:08;;;;;;;9.73;8.85;;;21.70;99.90;;;;;;5058228;28;20731;-72
2023/09/13 08:31:35;;;;;;;8.65;7.88;;;21.80;99.90;;;;;;5051341;28;20304;-72
2023/09/13 08:34:02;;;;;;;8.95;8.20;;;21.80;99.90;;;;;;5055773;28;20218;-72
2023/09/13 08:36:30;;;;;;;9.48;8.68;;;21.80;99.90;;;;;;5055468;28;20203;-72
2023/09/13 08:38:58;;;;;;;7.85;7.13;;;21.80;99.90;;;;;;5054643;28;20268;-72
2023/09/13 08:41:25;;;;;;;8.68;7.88;;;21.90;99.90;;;;;;5054876;28;20195;-72
2023/09/13 08:43:54;;;;;;;7.70;7.15;;;22.10;99.90;;;;;;5056297;28;20735;-72
2023/09/13 08:46:22;;;;;;;8.80;7.93;;;22.30;99.90;;;;;;5055208;28;20485;-72
2023/09/13 08:48:51;;;;;;;8.68;7.95;;;22.20;99.90;;;;;;5053793;28;20856;-72
2023/09/13 08:51:20;;;;;;;8.48;7.63;;;22.20;99.90;;;;;;5055667;28;20233;-72
2023/09/13 08:53:51;;;;;;;11.35;10.30;;;22.10;99.90;;;;;;5053867;28;20214;-72
2023/09/13 08:56:20;;;;;;;10.65;9.75;;;22.10;99.90;;;;;;5053743;28;20200;-72
2023/09/13 08:58:47;;;;;;;10.15;9.25;;;22.10;99.90;;;;;;5051758;28;20778;-71
2023/09/13 09:01:18;;;;;;;10.40;9.52;;;22.00;99.90;;;;;;5054075;28;20230;-71
2023/09/13 09:03:49;;;;;;;10.70;9.65;;;22.00;99.90;;;;;;5052511;28;20207;-72
2023/09/13 09:06:17;;;;;;;9.07;8.25;;;22.00;99.90;;;;;;5056778;28;20233;-72
2023/09/13 09:08:46;;;;;;;8.25;7.55;;;22.10;99.90;;;;;;5055591;28;20194;-72
2023/09/13 09:11:17;;;;;;;9.05;8.25;;;22.30;99.90;;;;;;5054543;28;20688;-72
2023/09/13 09:13:46;;;;;;;9.32;8.43;;;22.40;99.90;;;;;;5054669;28;20218;-72
2023/09/13 09:16:16;;;;;;;10.52;9.63;;;22.40;99.90;;;;;;5056348;28;20213;-72
2023/09/13 09:18:44;;;;;;;10.20;9.40;;;22.20;99.90;;;;;;5056968;28;20696;-72
2023/09/13 09:21:12;;;;;;;10.25;9.35;;;22.00;99.90;;;;;;5054636;28;20226;-72
2023/09/13 09:23:40;;;;;;;10.05;9.15;;;21.80;99.90;;;;;;5056686;28;20249;-72
2023/09/13 09:26:07;;;;;;;10.48;9.57;;;21.60;99.90;;;;;;5053808;28;21238;-72
2023/09/13 09:28:36;;;;;;;10.55;9.55;;;21.60;99.90;;;;;;5038873;28;20922;-72
2023/09/13 09:31:03;;;;;;;8.45;7.75;;;21.60;99.90;;;;;;5055378;28;20227;-72
2023/09/13 09:33:31;;;;;;;10.77;9.75;;;21.50;99.90;;;;;;5056302;28;20969;-72
2023/09/13 09:36:02;;;;;;;10.35;9.35;;;21.60;99.90;;;;;;5050073;28;20852;-72
2023/09/13 09:38:29;;;;;;;9.95;9.15;;;21.60;99.90;;;;;;5056075;28;20572;-72
2023/09/13 09:40:58;;;;;;;9.98;9.10;;;21.50;99.90;;;;;;5054197;28;20237;-72
2023/09/13 09:43:26;;;;;;;9.65;8.75;;;21.40;99.90;;;;;;5052848;28;20195;-72
2023/09/13 09:45:55;;;;;;;10.40;9.48;;;21.40;99.90;;;;;;5053652;28;20742;-72
2023/09/13 09:48:22;;;;;;;11.20;10.30;;;21.40;99.90;;;;;;5056074;28;20251;-72
2023/09/13 09:50:52;;;;;;;9.70;8.90;;;21.30;99.90;;;;;;5059022;28;20206;-72
2023/09/13 09:53:21;;;;;;;10.82;9.93;;;21.30;99.90;;;;;;5058465;28;21234;-72
2023/09/13 09:55:48;;;;;;;9.93;9.02;;;21.50;99.90;;;;;;5059553;28;20254;-72
2023/09/13 09:58:17;;;;;;;9.50;8.65;;;21.60;99.90;;;;;;5055121;28;20622;-73
2023/09/13 10:00:46;;;;;;;9.45;8.65;;;21.90;99.90;;;;;;5054753;28;20708;-72
2023/09/13 10:03:17;;;;;;;10.13;9.23;;;22.10;99.90;;;;;;5057275;28;20223;-72
2023/09/13 10:06:02;;;;;;;10.45;9.55;;;22.10;99.90;;;;;;5055348;28;20260;-72
2023/09/13 10:08:39;;;;;;;9.63;8.73;;;22.20;99.90;;;;;;5057303;28;20214;-72
2023/09/13 10:11:07;;;;;;;9.00;8.30;;;22.20;99.90;;;;;;5049924;28;20206;-72
2023/09/13 10:13:35;;;;;;;9.15;8.35;;;22.20;99.90;;;;;;5061240;28;20357;-72
2023/09/13 10:16:02;;;;;;;9.20;8.50;;;22.30;99.90;;;;;;5056008;28;20279;-72
2023/09/13 10:18:35;;;;;;;10.68;9.80;;;22.40;99.90;;;;;;5056037;28;20206;-73
2023/09/13 10:21:06;;;;;;;10.02;9.18;;;22.60;99.90;;;;;;5059099;28;20724;-72
2023/09/13 10:23:39;;;;;;;9.27;8.48;;;22.80;99.90;;;;;;5054521;28;20293;-71
2023/09/13 10:26:09;;;;;;;9.35;8.63;;;23.00;99.90;;;;;;5059893;28;20204;-72
2023/09/13 10:28:39;;;;;;;10.70;9.57;;;23.10;99.90;;;;;;5056055;28;20671;-71
2023/09/13 10:31:11;;;;;;;10.65;9.55;;;23.20;99.90;;;;;;5059615;28;20617;-72
2023/09/13 10:33:43;;;;;;;10.27;9.27;;;23.30;99.90;;;;;;5058505;28;20265;-72
2023/09/13 10:36:27;;;;;;;9.60;8.70;;;23.50;99.90;;;;;;5057135;28;20203;-71
2023/09/13 10:39:04;;;;;;;9.30;8.50;;;23.60;99.90;;;;;;5057174;28;20308;-71
2023/09/13 10:41:36;;;;;;;8.68;7.97;;;23.70;99.90;;;;;;5054227;28;21069;-71
2023/09/13 10:44:04;;;;;;;9.68;8.77;;;23.60;99.90;;;;;;5053871;28;20246;-71
2023/09/13 10:46:32;;;;;;;9.80;8.90;;;23.50;99.90;;;;;;5059504;28;20198;-70
2023/09/13 10:49:02;;;;;;;10.07;9.13;;;23.60;99.90;;;;;;5057715;28;20198;-71
2023/09/13 10:51:31;;;;;;;10.30;9.40;;;23.60;99.90;;;;;;5057877;28;20836;-72
2023/09/13 10:54:01;;;;;;;8.52;7.72;;;23.70;99.90;;;;;;5056799;28;20908;-72
2023/09/13 10:56:29;;;;;;;9.35;8.55;;;23.80;99.90;;;;;;5055659;28;20210;-72
2023/09/13 10:58:58;;;;;;;10.20;9.30;;;23.80;99.90;;;;;;5052622;28;20206;-71
2023/09/13 11:01:27;;;;;;;9.70;8.98;;;23.80;99.90;;;;;;5056606;28;20198;-72
2023/09/13 11:03:55;;;;;;;9.90;8.90;;;23.70;99.90;;;;;;5054766;28;20200;-71
2023/09/13 11:06:26;;;;;;;8.80;8.00;;;23.60;99.90;;;;;;5055351;28;20191;-71
2023/09/13 11:08:53;;;;;;;10.50;9.50;;;23.60;99.90;;;;;;5056669;28;21745;-71
2023/09/13 11:11:22;;;;;;;10.70;9.73;;;23.70;99.90;;;;;;5057445;28;20260;-71
2023/09/13 11:13:53;;;;;;;10.27;9.30;;;23.80;99.90;;;;;;5057157;28;20254;-71
2023/09/13 11:16:23;;;;;;;10.00;9.18;;;23.80;99.90;;;;;;5057619;28;20785;-71
2023/09/13 11:18:51;;;;;;;10.18;9.18;;;23.80;99.90;;;;;;5055578;28;20637;-72
2023/09/13 11:21:19;;;;;;;10.38;9.38;;;23.70;99.90;;;;;;5059026;28;20787;-73
2023/09/13 11:23:50;;;;;;;9.77;8.93;;;23.60;99.90;;;;;;5053161;28;20226;-72
2023/09/13 11:26:17;;;;;;;9.48;8.68;;;23.60;99.90;;;;;;5053288;28;20194;-72
2023/09/13 11:28:45;;;;;;;11.18;10.07;;;23.60;99.90;;;;;;5052200;28;20194;-72
2023/09/13 11:31:17;;;;;;;12.07;10.88;;;23.70;99.90;;;;;;5053514;28;20203;-72
2023/09/13 11:33:54;;;;;;;11.73;10.63;;;23.40;99.90;;;;;;5058153;28;20224;-72
2023/09/13 11:36:23;;;;;;;11.10;10.15;;;23.00;99.90;;;;;;5059289;28;20198;-72
2023/09/13 11:38:53;;;;;;;11.43;9.80;;;22.80;99.90;;;;;;5053041;28;20281;-72
2023/09/13 11:41:21;;;;;;;10.95;9.95;;;22.80;99.90;;;;;;5052766;28;20230;-72
2023/09/13 11:43:50;;;;;;;10.70;9.80;;;22.80;99.90;;;;;;5053382;28;20229;-71
2023/09/13 11:46:19;;;;;;;12.25;11.18;;;22.80;99.90;;;;;;5056883;28;20309;-71
2023/09/13 11:48:51;;;;;;;11.52;10.52;;;22.80;99.90;;;;;;5063767;28;20666;-71
2023/09/13 11:51:23;;;;;;;10.45;9.50;;;22.90;99.90;;;;;;5065496;28;20202;-71
2023/09/13 11:53:53;;;;;;;11.48;10.30;;;23.00;99.90;;;;;;5066154;28;20313;-72
2023/09/13 11:56:34;;;;;;;11.43;10.45;;;23.20;99.90;;;;;;5054742;28;20230;-72
2023/09/13 11:59:01;;;;;;;10.95;9.95;;;23.30;99.90;;;;;;5054932;28;20789;-72
2023/09/13 12:01:30;;;;;;;11.65;10.45;;;23.50;99.90;;;;;;5055280;28;20248;-73
2023/09/13 12:03:59;;;;;;;11.52;10.43;;;23.60;99.90;;;;;;5053218;28;20218;-74
2023/09/13 12:06:26;;;;;;;10.95;10.02;;;23.50;99.90;;;;;;5057595;28;20207;-73
2023/09/13 12:08:55;;;;;;;11.07;10.07;;;23.60;99.90;;;;;;5055241;28;20210;-73
2023/09/13 12:11:23;;;;;;;10.52;9.48;;;23.60;99.90;;;;;;5040825;28;20199;-73
2023/09/13 12:13:53;;;;;;;11.52;10.43;;;23.60;99.90;;;;;;5054916;28;20312;-73
2023/09/13 12:16:20;;;;;;;12.15;10.88;;;23.60;99.90;;;;;;5058016;28;20284;-73
2023/09/13 12:18:47;;;;;;;11.93;10.80;;;23.60;99.90;;;;;;5059202;28;20252;-74
2023/09/13 12:21:17;;;;;;;12.25;11.15;;;23.60;99.90;;;;;;5052624;28;20248;-73
2023/09/13 12:23:46;;;;;;;13.32;10.65;;;23.60;99.90;;;;;;5056948;28;20199;-74
2023/09/13 12:26:17;;;;;;;12.10;10.93;;;23.60;99.90;;;;;;5054411;28;20285;-73
2023/09/13 12:28:46;;;;;;;13.18;11.77;;;23.60;99.90;;;;;;5057643;28;20255;-74
2023/09/13 12:31:15;;;;;;;12.52;11.32;;;23.80;99.90;;;;;;5056911;28;20203;-74
2023/09/13 12:33:45;;;;;;;14.25;12.90;;;23.90;99.90;;;;;;5056151;28;20202;-74
2023/09/13 12:36:12;;;;;;;14.32;12.85;;;24.20;99.90;;;;;;5053786;28;20244;-74
2023/09/13 12:38:47;;;;;;;13.10;11.00;;;24.30;99.90;;;;;;5055896;28;20882;-74
2023/09/13 12:41:17;;;;;;;13.63;12.43;;;24.60;99.90;;;;;;5050182;28;20294;-74
2023/09/13 12:43:46;;;;;;;13.20;11.95;;;24.50;99.90;;;;;;5056242;28;20807;-74
2023/09/13 12:46:15;;;;;;;12.75;11.63;;;24.50;99.90;;;;;;5052883;28;20869;-73
2023/09/13 12:48:42;;;;;;;12.02;10.85;;;24.80;99.90;;;;;;5053094;28;20286;-74
2023/09/13 12:51:10;;;;;;;11.00;9.90;;;24.80;99.90;;;;;;5051389;28;20953;-74